createdAt,value
2022-11-29T00:00:28.878Z,2.25
2022-11-29T00:03:34.024Z,2.21
2022-11-29T00:06:36.333Z,2.16
2022-11-29T00:09:38.848Z,2.18
2022-11-29T00:12:40.998Z,2.31
2022-11-29T00:15:43.381Z,2.23
2022-11-29T00:18:45.503Z,2.33
2022-11-29T00:21:48.092Z,2.30
2022-11-29T00:24:50.217Z,2.31
2022-11-29T00:27:52.824Z,2.27
2022-11-29T00:30:55.137Z,2.28
2022-11-29T00:34:00.030Z,2.25
2022-11-29T00:37:02.169Z,2.24
2022-11-29T00:40:05.721Z,2.32
2022-11-29T00:43:07.861Z,2.34
2022-11-29T00:46:10.843Z,2.22
2022-11-29T00:49:13.094Z,2.24
2022-11-29T00:52:15.555Z,2.21
2022-11-29T00:55:17.804Z,2.16
2022-11-29T00:58:20.855Z,2.24
2022-11-29T01:01:23.088Z,2.20
2022-11-29T01:04:25.634Z,2.28
2022-11-29T01:07:27.823Z,2.13
2022-11-29T01:10:30.329Z,2.16
2022-11-29T01:13:33.831Z,2.11
2022-11-29T01:16:36.432Z,2.13
2022-11-29T01:19:39.121Z,2.20
2022-11-29T01:22:42.521Z,2.22
2022-11-29T01:25:44.633Z,2.17
2022-11-29T01:28:48.393Z,2.30
2022-11-29T01:31:50.518Z,2.23
2022-11-29T01:34:52.974Z,2.25
2022-11-29T01:37:55.402Z,2.25
2022-11-29T01:41:05.764Z,2.28
2022-11-29T01:44:30.664Z,2.15
2022-11-29T01:47:33.921Z,2.21
2022-11-29T01:50:38.596Z,2.24
2022-11-29T01:53:41.107Z,2.13
2022-11-29T01:56:45.268Z,2.16
2022-11-29T01:59:50.979Z,2.13
2022-11-29T02:03:03.677Z,2.25
2022-11-29T02:06:07.712Z,2.26
2022-11-29T02:09:22.150Z,2.20
2022-11-29T02:12:39.841Z,2.23
2022-11-29T02:15:50.759Z,2.14
2022-11-29T02:19:08.554Z,2.11
2022-11-29T02:22:48.861Z,2.11
2022-11-29T02:26:45.155Z,2.10
2022-11-29T02:30:18.013Z,2.06
2022-11-29T02:33:39.284Z,2.31
2022-11-29T02:37:00.126Z,2.26
2022-11-29T02:40:11.573Z,2.15
2022-11-29T02:43:32.429Z,2.07
2022-11-29T02:46:49.441Z,1.90
2022-11-29T02:50:11.041Z,1.95
2022-11-29T02:53:51.947Z,2.02
2022-11-29T02:57:00.032Z,2.08
2022-11-29T03:00:10.399Z,2.06
2022-11-29T03:03:23.604Z,2.05
2022-11-29T03:06:39.410Z,2.17
2022-11-29T03:09:46.388Z,2.10
2022-11-29T03:12:51.976Z,2.05
2022-11-29T03:16:31.345Z,2.09
2022-11-29T03:19:33.648Z,2.20
2022-11-29T03:22:46.933Z,2.20
2022-11-29T03:26:15.787Z,2.03
2022-11-29T03:29:48.144Z,2.02
2022-11-29T03:33:20.895Z,1.98
2022-11-29T03:36:51.900Z,1.98
2022-11-29T03:40:04.296Z,1.99
2022-11-29T03:43:14.150Z,2.01
2022-11-29T03:46:36.664Z,2.10
2022-11-29T03:49:56.064Z,2.12
2022-11-29T03:53:16.784Z,2.20
2022-11-29T03:56:28.360Z,2.25
2022-11-29T03:59:50.337Z,2.21
2022-11-29T04:03:07.965Z,2.25
2022-11-29T04:06:24.345Z,2.32
2022-11-29T04:09:49.907Z,2.20
2022-11-29T04:13:14.355Z,2.14
2022-11-29T04:16:38.709Z,2.20
2022-11-29T04:20:10.353Z,2.27
2022-11-29T04:23:53.097Z,2.17
2022-11-29T04:27:02.040Z,2.16
2022-11-29T04:30:07.007Z,2.22
2022-11-29T04:33:28.189Z,2.14
2022-11-29T04:36:48.887Z,2.04
2022-11-29T04:40:11.518Z,2.10
2022-11-29T04:43:47.363Z,2.08
2022-11-29T04:46:55.853Z,2.08
2022-11-29T04:50:41.333Z,2.16
2022-11-29T04:54:22.036Z,2.22
2022-11-29T04:57:37.507Z,2.10
2022-11-29T05:00:50.515Z,2.20
2022-11-29T05:04:02.525Z,2.18
2022-11-29T05:07:23.913Z,2.11
2022-11-29T05:10:35.437Z,2.22
2022-11-29T05:14:15.508Z,2.20
2022-11-29T05:17:33.489Z,2.13
2022-11-29T05:20:51.538Z,2.15
2022-11-29T05:24:02.667Z,2.13
2022-11-29T05:27:14.189Z,2.09
2022-11-29T05:30:20.155Z,2.09
2022-11-29T05:33:47.301Z,2.07
2022-11-29T05:37:12.448Z,1.94
2022-11-29T05:40:40.513Z,1.88
2022-11-29T05:43:49.682Z,1.77
2022-11-29T05:47:02.191Z,1.70
2022-11-29T05:50:22.849Z,1.67
2022-11-29T05:53:36.586Z,1.68
2022-11-29T05:56:44.673Z,1.65
2022-11-29T05:59:50.265Z,1.63
2022-11-29T06:03:04.394Z,1.70
2022-11-29T06:06:24.760Z,1.67
2022-11-29T06:09:35.375Z,1.70
2022-11-29T06:12:38.806Z,1.77
2022-11-29T06:16:05.498Z,1.65
2022-11-29T06:19:34.375Z,1.68
2022-11-29T06:22:39.268Z,1.78
2022-11-29T06:25:48.552Z,1.63
2022-11-29T06:29:19.252Z,1.75
2022-11-29T06:32:21.981Z,1.59
2022-11-29T06:35:46.840Z,1.52
2022-11-29T06:38:49.598Z,1.52
2022-11-29T06:41:51.821Z,1.47
2022-11-29T06:44:54.646Z,1.40
2022-11-29T06:48:03.757Z,1.43
2022-11-29T06:51:31.368Z,1.58
2022-11-29T06:54:42.813Z,1.69
2022-11-29T06:58:21.746Z,1.61
2022-11-29T07:01:51.769Z,1.72
2022-11-29T07:05:14.825Z,1.90
2022-11-29T07:08:20.172Z,1.93
2022-11-29T07:11:22.978Z,1.98
2022-11-29T07:14:25.444Z,2.03
2022-11-29T07:17:56.248Z,1.96
2022-11-29T07:21:23.645Z,2.05
2022-11-29T07:24:56.455Z,2.07
2022-11-29T07:28:01.412Z,2.09
2022-11-29T07:31:28.575Z,2.15
2022-11-29T07:35:08.303Z,2.22
2022-11-29T07:38:28.394Z,2.10
2022-11-29T07:41:53.009Z,2.07
2022-11-29T07:44:55.262Z,2.15
2022-11-29T07:47:58.161Z,2.24
2022-11-29T07:51:01.603Z,2.22
2022-11-29T07:54:04.551Z,2.21
2022-11-29T07:57:07.041Z,2.25
2022-11-29T08:00:10.606Z,2.12
2022-11-29T08:03:13.596Z,2.05
2022-11-29T08:06:16.025Z,2.08
2022-11-29T08:09:18.185Z,2.29
2022-11-29T08:12:20.719Z,2.22
2022-11-29T08:15:25.332Z,2.23
2022-11-29T08:18:27.831Z,2.24
2022-11-29T08:21:30.084Z,2.17
2022-11-29T08:24:32.605Z,2.34
2022-11-29T08:27:35.982Z,2.34
2022-11-29T08:30:38.423Z,2.31
2022-11-29T08:33:45.385Z,2.41
2022-11-29T08:36:48.850Z,2.53
2022-11-29T08:39:51.127Z,2.47
2022-11-29T08:42:57.613Z,2.50
2022-11-29T08:45:59.823Z,2.48
2022-11-29T08:49:02.542Z,2.33
2022-11-29T08:52:23.525Z,2.18
2022-11-29T08:55:27.231Z,2.21
2022-11-29T08:58:29.578Z,2.23
2022-11-29T09:01:32.002Z,2.24
2022-11-29T09:04:34.165Z,2.33
2022-11-29T09:07:37.228Z,2.37
2022-11-29T09:10:40.609Z,2.29
2022-11-29T09:13:45.692Z,2.42
2022-11-29T09:16:47.885Z,2.46
2022-11-29T09:19:50.654Z,2.47
2022-11-29T09:22:52.834Z,2.56
2022-11-29T09:25:55.835Z,2.75
2022-11-29T09:29:03.558Z,2.71
2022-11-29T09:32:06.536Z,2.77
2022-11-29T09:35:09.117Z,2.84
2022-11-29T09:38:12.932Z,2.83
2022-11-29T09:41:53.094Z,2.73
2022-11-29T09:45:10.454Z,2.82
2022-11-29T09:48:47.429Z,2.85
2022-11-29T09:52:08.269Z,2.80
2022-11-29T09:55:37.648Z,2.82
2022-11-29T09:58:48.943Z,2.83
2022-11-29T10:02:07.985Z,2.87
2022-11-29T10:05:20.587Z,2.73
2022-11-29T10:08:46.106Z,2.89
2022-11-29T10:12:17.441Z,2.80
2022-11-29T10:15:29.424Z,2.69
2022-11-29T10:18:40.843Z,2.67
2022-11-29T10:21:45.542Z,2.65
2022-11-29T10:24:56.805Z,2.57
2022-11-29T10:28:01.705Z,2.75
2022-11-29T10:31:27.576Z,2.86
2022-11-29T10:34:31.410Z,3.13
2022-11-29T10:37:34.773Z,3.10
2022-11-29T10:40:39.780Z,2.92
2022-11-29T10:43:43.173Z,2.96
2022-11-29T10:46:45.380Z,2.83
2022-11-29T10:49:48.413Z,2.92
2022-11-29T10:52:52.064Z,2.87
2022-11-29T10:56:00.191Z,2.98
2022-11-29T10:59:07.793Z,2.96
2022-11-29T11:02:21.101Z,2.95
2022-11-29T11:05:26.581Z,2.86
2022-11-29T11:08:30.606Z,2.85
2022-11-29T11:11:33.803Z,3.03
2022-11-29T11:14:38.750Z,3.05
2022-11-29T11:17:55.638Z,3.01
2022-11-29T11:21:01.884Z,2.91
2022-11-29T11:24:04.232Z,3.14
2022-11-29T11:27:06.776Z,3.31
2022-11-29T11:30:22.337Z,3.27
2022-11-29T11:33:31.151Z,3.29
2022-11-29T11:36:33.309Z,3.17
2022-11-29T11:39:35.769Z,3.15
2022-11-29T11:42:40.969Z,2.95
2022-11-29T11:45:52.442Z,2.90
2022-11-29T11:48:54.995Z,3.02
2022-11-29T11:52:01.656Z,3.03
2022-11-29T11:55:25.492Z,3.08
2022-11-29T11:58:55.842Z,2.95
2022-11-29T12:01:58.073Z,2.98
2022-11-29T12:05:04.817Z,2.93
2022-11-29T12:08:11.028Z,2.89
2022-11-29T12:11:16.515Z,2.96
2022-11-29T12:14:28.786Z,3.06
2022-11-29T12:17:52.918Z,3.23
2022-11-29T12:21:00.347Z,3.25
2022-11-29T12:24:32.322Z,3.12
2022-11-29T12:27:34.641Z,3.23
2022-11-29T12:30:40.595Z,3.37
2022-11-29T12:33:57.750Z,3.34
2022-11-29T12:37:08.755Z,3.39
2022-11-29T12:40:23.567Z,3.39
2022-11-29T12:43:46.627Z,3.45
2022-11-29T12:47:34.109Z,3.31
2022-11-29T12:50:37.113Z,3.28
2022-11-29T12:53:42.430Z,3.38
2022-11-29T12:57:11.141Z,3.41
2022-11-29T13:00:16.565Z,3.56
2022-11-29T13:03:21.637Z,3.52
2022-11-29T13:06:39.528Z,3.64
2022-11-29T13:09:54.209Z,3.65
2022-11-29T13:13:03.365Z,3.65
2022-11-29T13:16:22.995Z,3.52
2022-11-29T13:19:33.530Z,3.61
2022-11-29T13:22:55.000Z,3.47
2022-11-29T13:26:00.604Z,3.44
2022-11-29T13:29:04.061Z,3.43
2022-11-29T13:32:14.663Z,3.42
2022-11-29T13:35:51.028Z,3.37
2022-11-29T13:39:11.676Z,3.38
2022-11-29T13:42:29.365Z,3.35
2022-11-29T13:45:47.790Z,3.26
2022-11-29T13:48:52.644Z,3.37
2022-11-29T13:52:05.626Z,3.46
2022-11-29T13:55:11.539Z,3.39
2022-11-29T13:58:28.907Z,3.35
2022-11-29T14:02:00.540Z,3.44
2022-11-29T14:05:04.580Z,3.38
2022-11-29T14:09:02.507Z,3.36
2022-11-29T14:12:18.460Z,3.39
2022-11-29T14:15:25.287Z,3.37
2022-11-29T14:18:49.676Z,3.34
2022-11-29T14:22:06.808Z,3.49
2022-11-29T14:25:49.785Z,3.45
2022-11-29T14:28:45.759Z,3.44
2022-11-29T14:31:52.827Z,3.35
2022-11-29T14:35:04.020Z,3.31
2022-11-29T14:38:31.134Z,3.33
2022-11-29T14:42:06.810Z,3.44
2022-11-29T14:45:25.970Z,3.38
2022-11-29T14:48:31.911Z,3.41
2022-11-29T14:51:34.925Z,3.33
2022-11-29T14:54:54.603Z,3.35
2022-11-29T14:57:57.606Z,3.44
2022-11-29T15:01:09.642Z,3.52
2022-11-29T15:04:13.138Z,3.50
2022-11-29T15:07:19.434Z,3.56
2022-11-29T15:10:27.113Z,3.66
2022-11-29T15:13:35.445Z,3.58
2022-11-29T15:16:47.129Z,3.68
2022-11-29T15:20:31.884Z,3.56
2022-11-29T15:23:43.924Z,3.48
2022-11-29T15:27:00.063Z,3.53
2022-11-29T15:30:33.279Z,3.68
2022-11-29T15:33:44.002Z,3.63
2022-11-29T15:36:46.504Z,3.75
2022-11-29T15:40:01.765Z,3.73
2022-11-29T15:43:17.566Z,3.56
2022-11-29T15:46:24.363Z,3.53
2022-11-29T15:49:28.507Z,3.65
2022-11-29T15:52:36.369Z,3.62
2022-11-29T15:55:38.984Z,3.55
2022-11-29T15:58:42.028Z,3.65
2022-11-29T16:01:47.176Z,3.56
2022-11-29T16:04:54.477Z,3.50
2022-11-29T16:08:00.365Z,3.47
2022-11-29T16:11:05.002Z,3.51
2022-11-29T16:14:17.512Z,3.52
2022-11-29T16:17:20.937Z,3.44
2022-11-29T16:20:25.452Z,3.46
2022-11-29T16:23:39.397Z,3.58
2022-11-29T16:26:45.298Z,3.64
2022-11-29T16:29:48.545Z,3.60
2022-11-29T16:33:00.429Z,3.62
2022-11-29T16:36:35.491Z,3.60
2022-11-29T16:39:38.715Z,3.50
2022-11-29T16:42:43.137Z,3.43
2022-11-29T16:45:45.472Z,3.41
2022-11-29T16:48:49.354Z,3.41
2022-11-29T16:51:53.740Z,3.29
2022-11-29T16:54:56.977Z,3.20
2022-11-29T16:57:59.140Z,3.32
2022-11-29T17:01:19.325Z,3.39
2022-11-29T17:04:23.475Z,3.38
2022-11-29T17:07:31.569Z,3.44
2022-11-29T17:10:33.857Z,3.46
2022-11-29T17:13:36.313Z,3.42
2022-11-29T17:16:39.343Z,3.44
2022-11-29T17:19:41.848Z,3.38
2022-11-29T17:22:43.954Z,3.43
2022-11-29T17:25:59.370Z,3.42
2022-11-29T17:29:01.495Z,3.45
2022-11-29T17:32:04.087Z,3.47
2022-11-29T17:35:06.409Z,3.46
2022-11-29T17:38:08.788Z,3.56
2022-11-29T17:41:16.268Z,3.58
2022-11-29T17:44:18.623Z,3.55
2022-11-29T17:47:20.757Z,3.55
2022-11-29T17:50:23.142Z,3.53
2022-11-29T17:53:25.508Z,3.57
2022-11-29T17:56:29.187Z,3.56
2022-11-29T17:59:31.420Z,3.47
2022-11-29T18:02:33.961Z,3.42
2022-11-29T18:05:36.495Z,3.55
2022-11-29T18:08:40.494Z,3.50
2022-11-29T18:11:48.738Z,3.49
2022-11-29T18:14:52.355Z,3.61
2022-11-29T18:17:54.884Z,3.65
2022-11-29T18:20:59.314Z,3.55
2022-11-29T18:24:03.806Z,3.58
2022-11-29T18:27:05.923Z,3.61
2022-11-29T18:30:08.976Z,3.76
2022-11-29T18:33:11.305Z,3.73
2022-11-29T18:36:19.585Z,3.85
2022-11-29T18:39:23.531Z,3.82
2022-11-29T18:42:25.904Z,3.74
2022-11-29T18:45:28.003Z,3.65
2022-11-29T18:48:30.455Z,3.68
2022-11-29T18:51:34.223Z,3.78
2022-11-29T18:54:36.690Z,3.88
2022-11-29T18:57:38.855Z,3.92
2022-11-29T19:00:42.485Z,3.97
2022-11-29T19:03:46.713Z,4.00
2022-11-29T19:06:49.367Z,3.89
2022-11-29T19:09:51.478Z,3.95
2022-11-29T19:12:54.893Z,3.85
2022-11-29T19:15:57.070Z,3.89
2022-11-29T19:19:01.239Z,3.72
2022-11-29T19:22:03.405Z,3.75
2022-11-29T19:25:06.347Z,3.79
2022-11-29T19:28:13.902Z,3.78
2022-11-29T19:31:19.199Z,3.78
2022-11-29T19:34:21.379Z,3.80
2022-11-29T19:37:23.884Z,3.81
2022-11-29T19:40:26.050Z,3.80
2022-11-29T19:43:28.459Z,3.77
2022-11-29T19:46:36.272Z,3.86
2022-11-29T19:49:43.561Z,3.99
2022-11-29T19:52:48.776Z,3.92
2022-11-29T19:55:51.177Z,3.85
2022-11-29T19:58:53.379Z,3.79
2022-11-29T20:01:55.892Z,3.87
2022-11-29T20:04:58.390Z,3.83
2022-11-29T20:08:00.649Z,3.91
2022-11-29T20:11:06.135Z,3.73
2022-11-29T20:14:10.401Z,3.69
2022-11-29T20:17:12.924Z,3.80
2022-11-29T20:20:15.560Z,3.83
2022-11-29T20:23:18.049Z,3.71
2022-11-29T20:26:20.924Z,3.65
2022-11-29T20:29:30.453Z,3.62
2022-11-29T20:32:34.856Z,3.62
2022-11-29T20:35:38.251Z,3.77
2022-11-29T20:38:53.867Z,3.81
2022-11-29T20:42:04.777Z,3.85
2022-11-29T20:45:09.051Z,3.82
2022-11-29T20:48:21.106Z,3.85
2022-11-29T20:51:30.348Z,3.94
2022-11-29T20:54:33.349Z,4.04
2022-11-29T20:57:38.345Z,4.03
2022-11-29T21:00:40.892Z,4.05
2022-11-29T21:03:43.202Z,4.16
2022-11-29T21:06:45.729Z,4.19
2022-11-29T21:09:47.942Z,4.11
2022-11-29T21:12:50.745Z,4.03
2022-11-29T21:15:53.625Z,3.85
2022-11-29T21:19:02.134Z,4.02
2022-11-29T21:22:07.441Z,4.10
2022-11-29T21:25:15.866Z,4.04
2022-11-29T21:28:18.508Z,4.17
2022-11-29T21:31:21.280Z,4.20
2022-11-29T21:34:23.423Z,4.16
2022-11-29T21:37:29.121Z,4.29
2022-11-29T21:40:32.572Z,4.30
2022-11-29T21:44:04.867Z,4.43
2022-11-29T21:46:57.344Z,4.39
2022-11-29T21:49:59.787Z,4.35
2022-11-29T21:53:01.940Z,4.42
2022-11-29T21:56:06.713Z,4.35
2022-11-29T21:59:08.789Z,4.31
2022-11-29T22:02:11.437Z,4.34
2022-11-29T22:05:14.091Z,4.28
2022-11-29T22:08:16.214Z,4.39
2022-11-29T22:11:30.766Z,4.34
2022-11-29T22:14:33.580Z,4.40
2022-11-29T22:17:36.008Z,4.49
2022-11-29T22:20:38.161Z,4.50
2022-11-29T22:23:40.791Z,4.31
2022-11-29T22:26:43.745Z,4.30
2022-11-29T22:29:46.269Z,4.35
2022-11-29T22:32:48.985Z,4.33
2022-11-29T22:35:51.386Z,4.38
2022-11-29T22:38:53.606Z,4.37
2022-11-29T22:41:55.956Z,4.40
2022-11-29T22:44:58.198Z,4.31
2022-11-29T22:48:00.718Z,4.44
2022-11-29T22:51:13.292Z,4.41
2022-11-29T22:54:16.487Z,4.51
2022-11-29T22:57:18.887Z,4.48
2022-11-29T23:00:21.415Z,4.52
2022-11-29T23:03:23.535Z,4.47
2022-11-29T23:06:38.043Z,4.46
2022-11-29T23:09:40.190Z,4.49
2022-11-29T23:12:44.476Z,4.55
2022-11-29T23:15:46.614Z,4.39
2022-11-29T23:18:49.734Z,4.62
2022-11-29T23:21:52.050Z,4.52
2022-11-29T23:24:54.499Z,4.54
2022-11-29T23:27:56.670Z,4.57
2022-11-29T23:30:59.308Z,4.67
2022-11-29T23:34:02.583Z,4.56
2022-11-29T23:37:04.987Z,4.63
2022-11-29T23:40:07.845Z,4.65
2022-11-29T23:43:10.298Z,4.62
2022-11-29T23:46:15.642Z,4.55
2022-11-29T23:49:18.517Z,4.49
2022-11-29T23:52:20.615Z,4.50
2022-11-29T23:55:24.594Z,4.57
2022-11-29T23:58:28.646Z,4.63
